createdAt,value
2018-09-06T00:00:12.136Z,17.79
2018-09-06T00:01:12.410Z,17.88
2018-09-06T00:02:12.243Z,17.82
2018-09-06T00:03:12.100Z,17.84
2018-09-06T00:04:12.092Z,17.81
2018-09-06T00:05:12.079Z,17.73
2018-09-06T00:06:12.332Z,17.74
2018-09-06T00:07:11.789Z,17.82
2018-09-06T00:08:11.774Z,17.66
2018-09-06T00:09:12.293Z,17.63
2018-09-06T00:10:12.285Z,17.67
2018-09-06T00:11:12.271Z,17.67
2018-09-06T00:12:11.999Z,17.62
2018-09-06T00:13:11.988Z,17.62
2018-09-06T00:14:11.707Z,17.48
2018-09-06T00:15:11.963Z,17.43
2018-09-06T00:16:11.955Z,17.44
2018-09-06T00:17:12.210Z,17.47
2018-09-06T00:18:11.927Z,17.46
2018-09-06T00:19:11.965Z,17.43
2018-09-06T00:20:12.178Z,17.53
2018-09-06T00:21:11.895Z,17.5
2018-09-06T00:22:11.627Z,17.54
2018-09-06T00:23:11.876Z,17.48
2018-09-06T00:24:11.858Z,17.44
2018-09-06T00:25:11.585Z,17.41
2018-09-06T00:26:12.042Z,17.35
2018-09-06T00:27:12.091Z,17.35
2018-09-06T00:28:11.821Z,17.41
2018-09-06T00:29:11.799Z,17.33
2018-09-06T00:30:12.057Z,17.26
2018-09-06T00:31:11.779Z,17.29
2018-09-06T00:32:12.033Z,17.3
2018-09-06T00:33:12.021Z,17.29
2018-09-06T00:34:12.020Z,17.29
2018-09-06T00:35:11.734Z,17.23
2018-09-06T00:36:11.989Z,17.33
2018-09-06T00:37:11.980Z,17.22
2018-09-06T00:38:11.699Z,17.32
2018-09-06T00:39:11.747Z,17.23
2018-09-06T00:40:11.670Z,17.2
2018-09-06T00:41:11.665Z,17.22
2018-09-06T00:42:11.657Z,17.25
2018-09-06T00:43:11.904Z,17.15
2018-09-06T00:44:11.904Z,17.18
2018-09-06T00:45:11.882Z,17.17
2018-09-06T00:46:11.866Z,17.17
2018-09-06T00:47:11.590Z,17.2
2018-09-06T00:48:11.585Z,17.14
2018-09-06T00:49:11.567Z,17.11
2018-09-06T00:50:11.817Z,17.1
2018-09-06T00:51:11.281Z,17.15
2018-09-06T00:52:11.796Z,17.11
2018-09-06T00:53:11.259Z,17.11
2018-09-06T00:54:11.511Z,17.07
2018-09-06T00:55:11.752Z,17.11
2018-09-06T00:56:11.482Z,17.11
2018-09-06T00:57:11.467Z,17.04
2018-09-06T00:58:11.456Z,17.04
2018-09-06T00:59:11.709Z,17.08
2018-09-06T01:00:11.431Z,17.07
2018-09-06T01:01:11.684Z,17.11
2018-09-06T01:02:11.417Z,17.07
2018-09-06T01:03:11.417Z,17.07
2018-09-06T01:04:11.655Z,17.03
2018-09-06T01:05:11.377Z,17.03
2018-09-06T01:06:11.372Z,17.03
2018-09-06T01:07:11.617Z,16.9
2018-09-06T01:08:11.337Z,17.07
2018-09-06T01:09:11.590Z,16.95
2018-09-06T01:10:11.326Z,16.95
2018-09-06T01:11:11.309Z,16.96
2018-09-06T01:12:11.563Z,16.96
2018-09-06T01:13:11.285Z,16.9
2018-09-06T01:14:11.529Z,17.03
2018-09-06T01:15:11.254Z,16.93
2018-09-06T01:16:11.239Z,16.95
2018-09-06T01:17:11.497Z,16.88
2018-09-06T01:18:11.219Z,16.92
2018-09-06T01:19:11.207Z,16.93
2018-09-06T01:20:10.936Z,16.89
2018-09-06T01:21:11.185Z,16.86
2018-09-06T01:22:11.436Z,16.89
2018-09-06T01:23:11.164Z,16.93
2018-09-06T01:24:10.890Z,16.83
2018-09-06T01:25:11.142Z,16.78
2018-09-06T01:26:11.132Z,16.81
2018-09-06T01:27:11.107Z,16.83
2018-09-06T01:28:11.106Z,16.78
2018-09-06T01:29:11.351Z,16.78
2018-09-06T01:30:11.354Z,16.85
2018-09-06T01:31:11.330Z,16.83
2018-09-06T01:32:11.054Z,16.83
2018-09-06T01:33:10.775Z,16.77
2018-09-06T01:34:11.036Z,16.75
2018-09-06T01:35:11.335Z,16.78
2018-09-06T01:36:11.061Z,16.75
2018-09-06T01:37:10.996Z,16.75
2018-09-06T01:38:10.979Z,16.77
2018-09-06T01:39:10.972Z,16.71
2018-09-06T01:40:10.961Z,16.75
2018-09-06T01:41:11.212Z,16.83
2018-09-06T01:42:10.665Z,16.78
2018-09-06T01:43:10.656Z,16.81
2018-09-06T01:44:11.180Z,16.81
2018-09-06T01:45:10.903Z,16.74
2018-09-06T01:46:11.146Z,16.68
2018-09-06T01:47:10.881Z,16.67
2018-09-06T01:48:11.130Z,16.65
2018-09-06T01:49:11.112Z,16.65
2018-09-06T01:50:11.101Z,16.77
2018-09-06T01:51:10.823Z,16.81
2018-09-06T01:52:10.815Z,16.85
2018-09-06T01:53:10.800Z,16.8
2018-09-06T01:54:10.789Z,16.83
2018-09-06T01:55:11.037Z,16.81
2018-09-06T01:56:11.031Z,16.83
2018-09-06T01:57:10.487Z,16.75
2018-09-06T01:58:11.006Z,16.74
2018-09-06T01:59:10.996Z,16.74
2018-09-06T02:00:10.718Z,16.71
2018-09-06T02:01:10.969Z,16.68
2018-09-06T02:02:10.957Z,16.7
2018-09-06T02:03:10.941Z,16.7
2018-09-06T02:04:10.399Z,16.71
2018-09-06T02:05:10.662Z,16.7
2018-09-06T02:06:10.379Z,16.74
2018-09-06T02:07:10.905Z,16.7
2018-09-06T02:08:10.624Z,16.7
2018-09-06T02:09:10.876Z,16.65
2018-09-06T02:10:10.329Z,16.68
2018-09-06T02:11:10.856Z,16.65
2018-09-06T02:12:10.838Z,16.74
2018-09-06T02:13:10.558Z,16.67
2018-09-06T02:14:10.547Z,16.7
2018-09-06T02:15:10.536Z,16.7
2018-09-06T02:16:10.520Z,16.78
2018-09-06T02:17:10.773Z,16.75
2018-09-06T02:18:10.493Z,16.74
2018-09-06T02:19:10.747Z,16.68
2018-09-06T02:20:10.736Z,16.77
2018-09-06T02:21:10.460Z,16.75
2018-09-06T02:22:10.448Z,16.67
2018-09-06T02:23:10.764Z,16.75
2018-09-06T02:24:10.427Z,16.75
2018-09-06T02:25:10.682Z,16.77
2018-09-06T02:26:10.865Z,16.83
2018-09-06T02:27:10.395Z,16.83
2018-09-06T02:28:10.111Z,16.83
2018-09-06T02:29:10.360Z,16.7
2018-09-06T02:30:10.625Z,16.68
2018-09-06T02:31:10.598Z,16.88
2018-09-06T02:32:10.598Z,16.73
2018-09-06T02:33:10.582Z,16.86
2018-09-06T02:34:10.571Z,16.74
2018-09-06T02:35:10.556Z,16.7
2018-09-06T02:36:10.538Z,16.71
2018-09-06T02:37:10.531Z,16.73
2018-09-06T02:38:10.534Z,16.75
2018-09-06T02:39:09.984Z,16.68
2018-09-06T02:40:10.231Z,16.74
2018-09-06T02:41:10.498Z,16.7
2018-09-06T02:42:09.943Z,16.67
2018-09-06T02:43:10.460Z,16.65
2018-09-06T02:44:10.181Z,16.73
2018-09-06T02:45:09.915Z,16.68
2018-09-06T02:46:10.427Z,16.67
2018-09-06T02:47:10.147Z,16.7
2018-09-06T02:48:10.145Z,16.71
2018-09-06T02:49:10.397Z,16.74
2018-09-06T02:50:10.113Z,16.71
2018-09-06T02:51:10.092Z,16.7
2018-09-06T02:52:10.346Z,16.71
2018-09-06T02:53:10.080Z,16.77
2018-09-06T02:54:10.057Z,16.67
2018-09-06T02:55:10.316Z,16.56
2018-09-06T02:56:10.303Z,16.59
2018-09-06T02:57:10.287Z,16.6
2018-09-06T02:58:10.273Z,16.62
2018-09-06T02:59:10.263Z,16.6
2018-09-06T03:00:09.995Z,16.62
2018-09-06T03:01:10.244Z,16.6
2018-09-06T03:02:10.225Z,16.58
2018-09-06T03:03:09.968Z,16.6
2018-09-06T03:04:10.221Z,16.59
2018-09-06T03:05:10.198Z,16.58
2018-09-06T03:06:09.917Z,16.56
2018-09-06T03:07:09.641Z,16.58
2018-09-06T03:08:09.623Z,16.5
2018-09-06T03:09:09.881Z,16.49
2018-09-06T03:10:09.866Z,16.58
2018-09-06T03:11:10.128Z,16.53
2018-09-06T03:12:09.573Z,16.45
2018-09-06T03:13:09.568Z,16.56
2018-09-06T03:14:09.552Z,16.49
2018-09-06T03:15:09.870Z,16.5
2018-09-06T03:16:10.067Z,16.52
2018-09-06T03:17:10.050Z,16.44
2018-09-06T03:18:09.764Z,16.44
2018-09-06T03:19:10.021Z,16.48
2018-09-06T03:20:09.485Z,16.42
2018-09-06T03:21:09.745Z,16.41
2018-09-06T03:22:09.983Z,16.42
2018-09-06T03:23:09.976Z,16.42
2018-09-06T03:24:09.692Z,16.49
2018-09-06T03:25:09.957Z,16.52
2018-09-06T03:26:09.458Z,16.55
2018-09-06T03:27:09.655Z,16.5
2018-09-06T03:28:09.640Z,16.52
2018-09-06T03:29:09.646Z,16.52
2018-09-06T03:30:09.888Z,16.58
2018-09-06T03:31:09.880Z,16.59
2018-09-06T03:32:09.872Z,16.56
2018-09-06T03:33:09.594Z,16.65
2018-09-06T03:34:09.833Z,16.55
2018-09-06T03:35:09.828Z,16.55
2018-09-06T03:36:09.295Z,16.49
2018-09-06T03:37:09.804Z,16.49
2018-09-06T03:38:09.262Z,16.5
2018-09-06T03:39:09.768Z,16.48
2018-09-06T03:40:09.498Z,16.42
2018-09-06T03:41:09.758Z,16.41
2018-09-06T03:42:09.740Z,16.45
2018-09-06T03:43:09.725Z,16.49
2018-09-06T03:44:09.234Z,16.4
2018-09-06T03:45:09.708Z,16.37
2018-09-06T03:46:09.163Z,16.42
2018-09-06T03:47:09.409Z,16.41
2018-09-06T03:48:09.406Z,16.26
2018-09-06T03:49:09.382Z,16.3
2018-09-06T03:50:09.632Z,16.3
2018-09-06T03:51:09.629Z,16.16
2018-09-06T03:52:09.613Z,16.26
2018-09-06T03:53:09.334Z,16.2
2018-09-06T03:54:09.326Z,16.14
2018-09-06T03:55:09.625Z,16.15
2018-09-06T03:56:09.295Z,16.18
2018-09-06T03:57:09.281Z,16.07
2018-09-06T03:58:09.285Z,16.15
2018-09-06T03:59:09.549Z,16.09
2018-09-06T04:00:09.249Z,16.14
2018-09-06T04:01:09.503Z,16.11
2018-09-06T04:02:09.220Z,16.15
2018-09-06T04:03:09.474Z,16.11
2018-09-06T04:04:09.195Z,16.15
2018-09-06T04:05:09.449Z,16.14
2018-09-06T04:06:09.436Z,16.15
2018-09-06T04:07:09.420Z,16.11
2018-09-06T04:08:09.155Z,16.11
2018-09-06T04:09:09.394Z,16.11
2018-09-06T04:10:09.126Z,16.12
2018-09-06T04:11:08.854Z,16.12
2018-09-06T04:12:09.366Z,16.03
2018-09-06T04:13:09.349Z,16.12
2018-09-06T04:14:09.074Z,16.03
2018-09-06T04:15:09.065Z,16.04
2018-09-06T04:16:09.048Z,16.06
2018-09-06T04:17:09.040Z,16.04
2018-09-06T04:18:09.030Z,15.97
2018-09-06T04:19:09.002Z,16
2018-09-06T04:20:09.261Z,16.07
2018-09-06T04:21:08.992Z,16.06
2018-09-06T04:22:08.977Z,16.07
2018-09-06T04:23:09.225Z,16
2018-09-06T04:24:09.022Z,15.97
2018-09-06T04:25:09.207Z,16.01
2018-09-06T04:26:09.119Z,16.03
2018-09-06T04:27:09.194Z,16.04
2018-09-06T04:28:09.165Z,16.07
2018-09-06T04:29:09.173Z,16.11
2018-09-06T04:30:08.871Z,16.11
2018-09-06T04:31:08.592Z,16.09
2018-09-06T04:32:09.121Z,16.04
2018-09-06T04:33:09.104Z,16.06
2018-09-06T04:34:08.820Z,16.06
2018-09-06T04:35:08.813Z,16.04
2018-09-06T04:36:08.950Z,16.04
2018-09-06T04:37:08.516Z,16.03
2018-09-06T04:38:09.034Z,16
2018-09-06T04:39:08.750Z,16.04
2018-09-06T04:40:09.017Z,16.11
2018-09-06T04:41:08.732Z,16.04
2018-09-06T04:42:08.985Z,16.07
2018-09-06T04:43:08.974Z,16.04
2018-09-06T04:44:08.951Z,16.03
2018-09-06T04:45:08.692Z,16.09
2018-09-06T04:46:08.671Z,16.12
2018-09-06T04:47:08.651Z,16.12
2018-09-06T04:48:08.905Z,16.12
2018-09-06T04:49:08.901Z,16.09
2018-09-06T04:50:08.895Z,16.07
2018-09-06T04:51:08.602Z,16.12
2018-09-06T04:52:08.868Z,16.01
2018-09-06T04:53:08.845Z,16.11
2018-09-06T04:54:08.831Z,16.06
2018-09-06T04:55:08.597Z,16.04
2018-09-06T04:56:08.548Z,16.06
2018-09-06T04:57:08.534Z,16.07
2018-09-06T04:58:08.787Z,16.06
2018-09-06T04:59:08.509Z,16.07
2018-09-06T05:00:08.229Z,16.12
2018-09-06T05:01:08.481Z,16.15
2018-09-06T05:02:08.732Z,16.12
2018-09-06T05:03:08.454Z,16.12
2018-09-06T05:04:08.242Z,16.12
2018-09-06T05:05:08.429Z,16.15
2018-09-06T05:06:08.415Z,16.11
2018-09-06T05:07:08.667Z,16.14
2018-09-06T05:08:08.390Z,16.12
2018-09-06T05:09:08.648Z,16.18
2018-09-06T05:10:08.106Z,16.15
2018-09-06T05:11:08.621Z,16.16
2018-09-06T05:12:08.609Z,16.16
2018-09-06T05:13:08.332Z,16.18
2018-09-06T05:14:08.592Z,16.15
2018-09-06T05:15:08.615Z,16.2
2018-09-06T05:16:08.031Z,16.11
2018-09-06T05:17:08.012Z,16.18
2018-09-06T05:18:08.261Z,16.15
2018-09-06T05:19:08.264Z,16.2
2018-09-06T05:20:08.501Z,16.18
2018-09-06T05:21:08.493Z,16.16
2018-09-06T05:22:08.338Z,16.23
2018-09-06T05:23:08.471Z,16.25
2018-09-06T05:24:08.193Z,16.26
2018-09-06T05:25:08.175Z,16.27
2018-09-06T05:26:08.428Z,16.31
2018-09-06T05:27:08.418Z,16.37
2018-09-06T05:28:08.407Z,16.27
2018-09-06T05:29:08.388Z,16.31
2018-09-06T05:30:07.847Z,16.3
2018-09-06T05:31:08.103Z,16.37
2018-09-06T05:32:08.089Z,16.41
2018-09-06T05:33:08.345Z,16.37
2018-09-06T05:34:08.326Z,16.35
2018-09-06T05:35:08.127Z,16.37
2018-09-06T05:36:08.615Z,16.34
2018-09-06T05:37:08.028Z,16.48
2018-09-06T05:38:08.024Z,16.48
2018-09-06T05:39:07.742Z,16.49
2018-09-06T05:40:08.255Z,16.44
2018-09-06T05:41:07.981Z,16.44
2018-09-06T05:42:07.964Z,16.42
2018-09-06T05:43:07.950Z,16.49
2018-09-06T05:44:07.940Z,16.5
2018-09-06T05:45:07.931Z,16.56
2018-09-06T05:46:07.643Z,16.6
2018-09-06T05:47:07.895Z,16.53
2018-09-06T05:48:07.887Z,16.58
2018-09-06T05:49:07.876Z,16.62
2018-09-06T05:50:08.139Z,16.65
2018-09-06T05:51:07.845Z,16.74
2018-09-06T05:52:07.838Z,16.7
2018-09-06T05:53:07.834Z,16.71
2018-09-06T05:54:08.075Z,16.73
2018-09-06T05:55:08.068Z,16.67
2018-09-06T05:56:07.784Z,16.71
2018-09-06T05:57:07.783Z,16.71
2018-09-06T05:58:08.230Z,16.78
2018-09-06T05:59:07.484Z,16.88
2018-09-06T06:00:07.906Z,16.88
2018-09-06T06:01:07.729Z,16.93
2018-09-06T06:02:07.450Z,16.95
2018-09-06T06:03:07.711Z,16.96
2018-09-06T06:04:07.955Z,17.11
2018-09-06T06:05:07.943Z,17.06
2018-09-06T06:06:07.396Z,17.07
2018-09-06T06:07:07.648Z,17.11
2018-09-06T06:08:07.374Z,17.04
2018-09-06T06:09:07.888Z,17.1
2018-09-06T06:10:07.618Z,17.14
2018-09-06T06:11:07.867Z,17.2
2018-09-06T06:12:07.328Z,17.23
2018-09-06T06:13:07.847Z,17.3
2018-09-06T06:14:07.565Z,17.36
2018-09-06T06:15:07.549Z,17.43
2018-09-06T06:16:07.773Z,17.47
2018-09-06T06:17:07.881Z,17.55
2018-09-06T06:18:07.520Z,17.67
2018-09-06T06:19:07.509Z,17.66
2018-09-06T06:20:07.732Z,17.7
2018-09-06T06:21:07.483Z,17.76
2018-09-06T06:22:07.477Z,17.81
2018-09-06T06:23:07.460Z,17.84
2018-09-06T06:24:07.194Z,17.97
2018-09-06T06:25:07.704Z,17.95
2018-09-06T06:26:08.595Z,18.06
2018-09-06T06:27:07.408Z,18.15
2018-09-06T06:28:07.137Z,18.22
2018-09-06T06:29:07.385Z,18.18
2018-09-06T06:30:07.375Z,18.27
2018-09-06T06:31:07.368Z,18.36
2018-09-06T06:32:07.163Z,18.39
2018-09-06T06:33:07.607Z,18.42
2018-09-06T06:34:07.473Z,18.43
2018-09-06T06:35:07.588Z,18.5
2018-09-06T06:36:07.049Z,18.5
2018-09-06T06:37:07.302Z,18.49
2018-09-06T06:38:07.560Z,18.55
2018-09-06T06:39:07.540Z,18.55
2018-09-06T06:40:07.264Z,18.58
2018-09-06T06:41:07.537Z,18.62
2018-09-06T06:42:07.511Z,18.67
2018-09-06T06:43:07.234Z,18.64
2018-09-06T06:44:07.484Z,18.68
2018-09-06T06:45:07.207Z,18.77
2018-09-06T06:46:07.467Z,18.74
2018-09-06T06:47:07.191Z,18.8
2018-09-06T06:48:07.179Z,18.74
2018-09-06T06:49:07.173Z,18.82
2018-09-06T06:50:07.156Z,18.83
2018-09-06T06:51:07.180Z,18.79
2018-09-06T06:52:07.402Z,18.82
2018-09-06T06:53:07.128Z,18.82
2018-09-06T06:54:07.116Z,18.87
2018-09-06T06:55:07.359Z,18.77
2018-09-06T06:56:06.824Z,18.8
2018-09-06T06:57:07.087Z,18.68
2018-09-06T06:58:07.077Z,18.77
2018-09-06T06:59:07.318Z,18.76
2018-09-06T07:00:07.325Z,18.8
2018-09-06T07:01:07.581Z,18.84
2018-09-06T07:02:07.293Z,18.7
2018-09-06T07:03:07.011Z,18.62
2018-09-06T07:04:07.141Z,18.61
2018-09-06T07:05:06.993Z,18.65
2018-09-06T07:06:06.983Z,18.59
2018-09-06T07:07:07.205Z,18.54
2018-09-06T07:08:07.231Z,18.62
2018-09-06T07:09:06.702Z,18.61
2018-09-06T07:10:07.209Z,18.59
2018-09-06T07:11:06.981Z,18.59
2018-09-06T07:12:07.187Z,18.52
2018-09-06T07:13:06.910Z,18.58
2018-09-06T07:14:06.941Z,18.54
2018-09-06T07:15:06.885Z,18.57
2018-09-06T07:16:07.144Z,18.62
2018-09-06T07:17:07.125Z,18.5
2018-09-06T07:18:07.213Z,18.58
2018-09-06T07:19:06.853Z,18.57
2018-09-06T07:20:07.103Z,18.55
2018-09-06T07:21:07.083Z,18.52
2018-09-06T07:22:07.126Z,18.54
2018-09-06T07:23:06.535Z,18.62
2018-09-06T07:24:07.063Z,18.65
2018-09-06T07:25:07.121Z,18.65
2018-09-06T07:26:06.768Z,18.77
2018-09-06T07:27:07.028Z,18.7
2018-09-06T07:28:06.483Z,18.72
2018-09-06T07:29:07.000Z,18.8
2018-09-06T07:30:06.721Z,18.83
2018-09-06T07:31:06.738Z,18.9
2018-09-06T07:32:06.755Z,18.82
2018-09-06T07:33:06.961Z,18.87
2018-09-06T07:34:06.945Z,18.87
2018-09-06T07:35:06.459Z,18.94
2018-09-06T07:36:06.928Z,18.91
2018-09-06T07:37:06.657Z,18.92
2018-09-06T07:38:06.911Z,18.9
2018-09-06T07:39:06.896Z,18.87
2018-09-06T07:40:06.886Z,18.82
2018-09-06T07:41:06.947Z,18.92
2018-09-06T07:42:06.600Z,18.99
2018-09-06T07:43:06.871Z,18.97
2018-09-06T07:44:06.859Z,18.99
2018-09-06T07:45:06.854Z,18.97
2018-09-06T07:46:06.298Z,18.86
2018-09-06T07:47:06.549Z,18.99
2018-09-06T07:48:06.540Z,18.97
2018-09-06T07:49:06.530Z,18.95
2018-09-06T07:50:07.042Z,18.99
2018-09-06T07:51:06.516Z,19.02
2018-09-06T07:52:06.822Z,19.13
2018-09-06T07:53:06.815Z,19.01
2018-09-06T07:54:06.482Z,19.08
2018-09-06T07:55:06.748Z,19.14
2018-09-06T07:56:06.460Z,19.17
2018-09-06T07:57:06.723Z,19.24
2018-09-06T07:58:06.722Z,19.21
2018-09-06T07:59:06.428Z,19.23
2018-09-06T08:00:06.692Z,19.17
2018-09-06T08:01:06.409Z,19.18
2018-09-06T08:02:06.139Z,19.28
2018-09-06T08:03:06.387Z,19.33
2018-09-06T08:04:06.421Z,19.31
2018-09-06T08:05:06.114Z,19.32
2018-09-06T08:06:06.361Z,19.33
2018-09-06T08:07:06.610Z,19.35
2018-09-06T08:08:06.603Z,19.38
2018-09-06T08:09:06.595Z,19.36
2018-09-06T08:10:06.322Z,19.36
2018-09-06T08:11:06.310Z,19.39
2018-09-06T08:12:06.777Z,19.36
2018-09-06T08:13:06.556Z,19.36
2018-09-06T08:14:06.278Z,19.36
2018-09-06T08:15:06.009Z,19.39
2018-09-06T08:16:06.258Z,19.39
2018-09-06T08:17:06.248Z,19.42
2018-09-06T08:18:06.502Z,19.43
2018-09-06T08:19:06.497Z,19.36
2018-09-06T08:20:06.212Z,19.32
2018-09-06T08:21:06.468Z,19.31
2018-09-06T08:22:06.513Z,19.32
2018-09-06T08:23:06.200Z,19.36
2018-09-06T08:24:06.442Z,19.32
2018-09-06T08:25:06.172Z,19.4
2018-09-06T08:26:06.172Z,19.43
2018-09-06T08:27:06.220Z,19.43
2018-09-06T08:28:06.139Z,19.4
2018-09-06T08:29:06.133Z,19.4
2018-09-06T08:30:05.859Z,19.4
2018-09-06T08:31:06.638Z,19.38
2018-09-06T08:32:06.360Z,19.4
2018-09-06T08:33:06.096Z,19.43
2018-09-06T08:34:06.079Z,19.39
2018-09-06T08:35:06.339Z,19.38
2018-09-06T08:36:06.323Z,19.43
2018-09-06T08:37:06.507Z,19.38
2018-09-06T08:38:06.300Z,19.39
2018-09-06T08:39:06.025Z,19.38
2018-09-06T08:40:06.285Z,19.36
2018-09-06T08:41:06.265Z,19.39
2018-09-06T08:42:05.996Z,19.35
2018-09-06T08:43:05.985Z,19.31
2018-09-06T08:44:05.974Z,19.31
2018-09-06T08:45:05.965Z,19.33
2018-09-06T08:46:05.963Z,19.2
2018-09-06T08:47:06.001Z,19.17
2018-09-06T08:48:05.668Z,19.1
2018-09-06T08:49:06.220Z,19.14
2018-09-06T08:50:05.923Z,19.08
2018-09-06T08:51:06.215Z,19.13
2018-09-06T08:52:06.325Z,19.13
2018-09-06T08:53:05.928Z,19.06
2018-09-06T08:54:05.877Z,19.11
2018-09-06T08:55:05.864Z,19.05
2018-09-06T08:56:05.851Z,19.01
2018-09-06T08:57:05.838Z,19.01
2018-09-06T08:58:05.835Z,18.99
2018-09-06T08:59:05.835Z,19.06
2018-09-06T09:00:06.077Z,18.99
2018-09-06T09:01:06.081Z,19.01
2018-09-06T09:02:05.549Z,18.95
2018-09-06T09:03:05.905Z,19.08
2018-09-06T09:04:06.032Z,18.98
2018-09-06T09:05:05.761Z,18.97
2018-09-06T09:06:05.928Z,19.02
2018-09-06T09:07:05.466Z,18.99
2018-09-06T09:08:05.985Z,18.94
2018-09-06T09:09:05.984Z,18.95
2018-09-06T09:10:05.703Z,18.87
2018-09-06T09:11:05.790Z,18.98
2018-09-06T09:12:05.679Z,18.94
2018-09-06T09:13:05.948Z,18.76
2018-09-06T09:14:05.662Z,18.79
2018-09-06T09:15:05.646Z,18.79
2018-09-06T09:16:05.419Z,18.76
2018-09-06T09:17:05.905Z,18.79
2018-09-06T09:18:05.887Z,18.79
2018-09-06T09:19:05.626Z,18.8
2018-09-06T09:20:05.600Z,18.74
2018-09-06T09:21:05.613Z,18.65
2018-09-06T09:22:06.297Z,18.62
2018-09-06T09:23:05.563Z,18.65
2018-09-06T09:24:05.552Z,18.65
2018-09-06T09:25:05.803Z,18.59
2018-09-06T09:26:05.564Z,18.74
2018-09-06T09:27:05.784Z,18.62
2018-09-06T09:28:05.607Z,18.62
2018-09-06T09:29:05.757Z,18.65
2018-09-06T09:30:05.752Z,18.59
2018-09-06T09:31:05.474Z,18.79
2018-09-06T09:32:05.472Z,18.73
2018-09-06T09:33:05.462Z,18.79
2018-09-06T09:34:05.445Z,18.79
2018-09-06T09:35:05.696Z,18.79
2018-09-06T09:36:05.265Z,18.86
2018-09-06T09:37:05.696Z,18.82
2018-09-06T09:38:05.667Z,18.87
2018-09-06T09:39:05.393Z,18.76
2018-09-06T09:40:05.641Z,18.91
2018-09-06T09:41:05.369Z,18.76
2018-09-06T09:42:05.626Z,18.87
2018-09-06T09:43:05.349Z,18.92
2018-09-06T09:44:05.338Z,18.91
2018-09-06T09:45:05.592Z,18.87
2018-09-06T09:48:05.560Z,18.82
2018-09-06T09:49:05.550Z,18.84
2018-09-06T09:50:05.536Z,18.8
2018-09-06T09:51:05.527Z,18.86
2018-09-06T09:52:05.515Z,18.79
2018-09-06T09:53:05.245Z,18.77
2018-09-06T09:54:05.242Z,18.87
2018-09-06T09:55:05.217Z,18.86
2018-09-06T09:56:05.490Z,18.79
2018-09-06T09:57:05.342Z,18.83
2018-09-06T09:58:05.243Z,18.83
2018-09-06T09:59:05.439Z,18.73
2018-09-06T10:00:05.440Z,18.84
2018-09-06T10:01:05.156Z,18.8
2018-09-06T10:02:05.147Z,18.83
2018-09-06T10:03:05.399Z,18.79
2018-09-06T10:04:05.128Z,18.87
2018-09-06T10:05:04.859Z,18.95
2018-09-06T10:06:05.371Z,18.95
2018-09-06T10:07:05.360Z,18.95
2018-09-06T10:08:05.347Z,18.9
2018-09-06T10:09:05.076Z,18.9
2018-09-06T10:10:05.062Z,18.9
2018-09-06T10:11:05.059Z,18.79
2018-09-06T10:12:05.044Z,18.82
2018-09-06T10:13:05.043Z,18.79
2018-09-06T10:14:05.286Z,18.79
2018-09-06T10:15:04.795Z,18.87
2018-09-06T10:16:05.000Z,18.76
2018-09-06T10:17:04.988Z,18.86
2018-09-06T10:18:05.073Z,18.9
2018-09-06T10:19:04.968Z,18.87
2018-09-06T10:20:04.962Z,18.87
2018-09-06T10:21:05.208Z,18.82
2018-09-06T10:22:04.943Z,18.9
2018-09-06T10:23:04.931Z,18.91
2018-09-06T10:24:05.179Z,18.91
2018-09-06T10:25:04.909Z,18.92
2018-09-06T10:26:04.901Z,18.94
2018-09-06T10:27:04.821Z,18.91
2018-09-06T10:28:05.137Z,18.95
2018-09-06T10:29:04.927Z,18.92
2018-09-06T10:30:04.865Z,18.86
2018-09-06T10:31:05.112Z,18.84
2018-09-06T10:32:04.842Z,18.87
2018-09-06T10:33:04.840Z,18.92
2018-09-06T10:34:04.549Z,18.9
2018-09-06T10:35:05.073Z,18.87
2018-09-06T10:36:04.801Z,18.76
2018-09-06T10:37:04.778Z,18.87
2018-09-06T10:38:05.040Z,18.84
2018-09-06T10:39:05.019Z,18.79
2018-09-06T10:40:04.987Z,18.77
2018-09-06T10:41:04.736Z,18.82
2018-09-06T10:42:04.986Z,18.77
2018-09-06T10:43:04.710Z,18.82
2018-09-06T10:44:04.699Z,18.87
2018-09-06T10:45:04.685Z,18.83
2018-09-06T10:46:05.034Z,18.83
2018-09-06T10:47:04.935Z,18.79
2018-09-06T10:48:04.804Z,18.83
2018-09-06T10:49:04.649Z,18.82
2018-09-06T10:50:04.637Z,18.8
2018-09-06T10:51:04.653Z,18.83
2018-09-06T10:52:04.889Z,18.86
2018-09-06T10:53:04.604Z,18.8
2018-09-06T10:54:04.869Z,18.77
2018-09-06T10:55:04.589Z,18.87
2018-09-06T10:56:04.840Z,18.86
2018-09-06T10:57:04.565Z,18.79
2018-09-06T10:58:04.577Z,18.83
2018-09-06T10:59:04.805Z,18.87
2018-09-06T11:00:04.810Z,18.83
2018-09-06T11:01:04.803Z,18.91
2018-09-06T11:02:04.771Z,18.92
2018-09-06T11:03:04.762Z,18.87
2018-09-06T11:04:04.491Z,18.94
2018-09-06T11:05:04.209Z,18.99
2018-09-06T11:06:04.736Z,18.91
2018-09-06T11:07:04.768Z,18.99
2018-09-06T11:08:05.195Z,18.94
2018-09-06T11:09:04.699Z,18.91
2018-09-06T11:10:04.681Z,18.95
2018-09-06T11:11:04.687Z,18.99
2018-09-06T11:12:04.409Z,18.98
2018-09-06T11:13:04.406Z,19.06
2018-09-06T11:14:04.642Z,18.95
2018-09-06T11:15:04.500Z,18.99
2018-09-06T11:16:04.623Z,18.95
2018-09-06T11:17:04.346Z,18.98
2018-09-06T11:18:04.789Z,19.01
2018-09-06T11:19:04.345Z,18.98
2018-09-06T11:20:04.316Z,18.97
2018-09-06T11:21:04.106Z,19.01
2018-09-06T11:22:05.033Z,18.83
2018-09-06T11:23:04.555Z,18.87
2018-09-06T11:24:04.270Z,18.99
2018-09-06T11:25:03.996Z,18.98
2018-09-06T11:26:04.521Z,18.95
2018-09-06T11:27:04.250Z,19.01
2018-09-06T11:28:04.329Z,18.98
2018-09-06T11:29:04.478Z,18.99
2018-09-06T11:30:04.211Z,18.95
2018-09-06T11:31:04.205Z,18.99
2018-09-06T11:32:04.188Z,18.92
2018-09-06T11:33:04.456Z,18.87
2018-09-06T11:34:04.220Z,18.87
2018-09-06T11:35:04.454Z,18.87
2018-09-06T11:36:04.150Z,18.9
2018-09-06T11:37:04.132Z,18.9
2018-09-06T11:38:04.125Z,18.92
2018-09-06T11:39:04.117Z,18.91
2018-09-06T11:40:04.677Z,18.84
2018-09-06T11:41:03.829Z,18.87
2018-09-06T11:42:04.339Z,18.87
2018-09-06T11:43:03.800Z,18.8
2018-09-06T11:44:04.321Z,18.79
2018-09-06T11:45:04.104Z,18.82
2018-09-06T11:46:03.777Z,18.74
2018-09-06T11:47:04.208Z,18.83
2018-09-06T11:48:04.025Z,18.87
2018-09-06T11:49:04.002Z,18.82
2018-09-06T11:50:03.995Z,18.8
2018-09-06T11:51:03.986Z,18.82
2018-09-06T11:52:03.708Z,18.87
2018-09-06T11:53:04.234Z,18.91
2018-09-06T11:54:03.954Z,18.97
2018-09-06T11:55:04.217Z,18.87
2018-09-06T11:56:03.930Z,18.92
2018-09-06T11:57:03.654Z,18.92
2018-09-06T11:58:03.911Z,18.98
2018-09-06T11:59:04.159Z,18.92
2018-09-06T12:00:03.624Z,18.86
2018-09-06T12:01:04.138Z,18.9
2018-09-06T12:02:03.628Z,18.87
2018-09-06T12:03:04.121Z,18.92
2018-09-06T12:04:04.106Z,18.83
2018-09-06T12:05:04.101Z,18.86
2018-09-06T12:06:04.282Z,18.86
2018-09-06T12:07:03.808Z,18.84
2018-09-06T12:08:04.064Z,18.98
2018-09-06T12:09:04.088Z,18.82
2018-09-06T12:10:03.833Z,18.86
2018-09-06T12:11:03.768Z,18.95
2018-09-06T12:12:03.753Z,18.82
2018-09-06T12:13:03.748Z,18.9
2018-09-06T12:14:03.737Z,18.98
2018-09-06T12:15:03.989Z,18.98
2018-09-06T12:16:03.986Z,18.83
2018-09-06T12:17:03.706Z,18.92
2018-09-06T12:18:03.724Z,18.94
2018-09-06T12:19:03.681Z,18.87
2018-09-06T12:20:03.985Z,18.91
2018-09-06T12:21:03.925Z,18.86
2018-09-06T12:22:03.923Z,18.86
2018-09-06T12:23:03.913Z,18.87
2018-09-06T12:24:03.627Z,18.92
2018-09-06T12:25:03.659Z,18.91
2018-09-06T12:26:03.612Z,18.86
2018-09-06T12:27:03.808Z,18.86
2018-09-06T12:28:03.858Z,18.9
2018-09-06T12:29:03.572Z,18.9
2018-09-06T12:30:03.982Z,18.82
2018-09-06T12:31:03.554Z,18.91
2018-09-06T12:32:03.283Z,18.92
2018-09-06T12:33:03.982Z,18.82
2018-09-06T12:34:03.785Z,18.9
2018-09-06T12:35:03.775Z,18.94
2018-09-06T12:36:03.765Z,18.97
2018-09-06T12:37:03.754Z,18.98
2018-09-06T12:38:03.485Z,19.02
2018-09-06T12:39:03.730Z,19.02
2018-09-06T12:40:03.205Z,19.02
2018-09-06T12:41:03.448Z,19.06
2018-09-06T12:42:03.699Z,19.1
2018-09-06T12:43:03.684Z,19.05
2018-09-06T12:44:03.415Z,19.23
2018-09-06T12:45:03.143Z,19.11
2018-09-06T12:46:03.405Z,19.15
2018-09-06T12:47:03.648Z,19.24
2018-09-06T12:48:03.644Z,19.24
2018-09-06T12:49:03.625Z,19.24
2018-09-06T12:50:03.350Z,19.28
2018-09-06T12:51:03.809Z,19.23
2018-09-06T12:52:03.593Z,19.33
2018-09-06T12:53:03.318Z,19.36
2018-09-06T12:54:03.577Z,19.36
2018-09-06T12:55:03.565Z,19.36
2018-09-06T12:56:03.286Z,19.35
2018-09-06T12:57:03.279Z,19.38